Flag for France

Past Weather in 43°21'50.9"N, 1°45'41.9"W, France — Yesterday and Last 2 Weeks

Currently: 68 °F. Partly sunny. (Weather station: Biarritz Airport, France). See more current weather

Past Weather in 43°21'50.9"N, 1°45'41.9"W — Graph

°F

43°21'50.9"N, 1°45'41.9"W Temperature Yesterday

Maximum temperature yesterday: 66 °F (at 5:30 pm)
Minimum temperature yesterday: 61 °F (at 10:30 am)
Average temperature yesterday: 63 °F

High & Low Weather Summary for the Past Weeks

 TemperatureHumidityPressure
High84 °F (Jun 17, 4:00 pm)100% (Jun 8, 7:00 am)30.21 "Hg (Jun 8, 7:00 am)
Low50 °F (Jun 13, 5:00 am)32% (Jun 13, 6:00 pm)29.74 "Hg (Jun 17, 8:30 pm)
Average65 °F82%29.99 "Hg
* Reported Jun 6 4:00 pm — Jun 21 4:00 pm, 43°21'50.9"N, 1°45'41.9"W. Weather by CustomWeather, © 2024

Note: Actual official high and low records may vary slightly from our data, if they occured in-between our weather recording intervals... More about our weather records

43°21'50.9"N, 1°45'41.9"W Weather History for the Previous 24 Hours

Scroll right to see more
 ConditionsComfort  
Time TempWeatherWind HumidityBarometerVisibility
4:00 pm
Fri, Jun 21
66 °FPartly sunny.16 mph83%30.21 "HgN/A
3:30 pm68 °FPartly sunny.17 mph83%30.21 "HgN/A
3:00 pm68 °FPartly sunny.17 mph88%30.21 "HgN/A
2:30 pm64 °FCloudy.15 mph94%30.21 "HgN/A
2:00 pm63 °FMostly cloudy.15 mph100%30.21 "HgN/A
1:30 pm63 °FPartly sunny.13 mph94%30.21 "HgN/A
1:00 pm66 °FPartly sunny.21 mph88%30.21 "HgN/A
12:30 pm64 °FMostly cloudy.17 mph94%30.21 "HgN/A
12:00 pm63 °FOvercast.20 mph94%30.18 "HgN/A
11:00 am63 °FRain. Fog.16 mph94%30.18 "Hg1 mi
10:00 am64 °FMostly cloudy.16 mph94%30.15 "HgN/A
9:30 am63 °FBroken clouds.10 mph94%30.15 "HgN/A
9:00 am63 °FMostly cloudy.9 mph94%30.12 "HgN/A
8:30 am61 °FOvercast.8 mph100%30.12 "HgN/A
7:30 am61 °FPartly sunny.7 mph94%30.09 "HgN/A
7:00 am61 °FMostly cloudy.6 mph94%30.09 "HgN/A
6:30 am59 °FMostly cloudy.3 mph100%30.09 "HgN/A
6:00 am59 °FPartly cloudy.5 mph100%30.09 "HgN/A
5:30 am59 °FMostly cloudy.7 mph100%30.09 "HgN/A
5:00 am59 °FLight rain. Fog.5 mph100%30.09 "Hg2 mi
4:30 am61 °FLight rain. Fog.5 mph94%30.09 "Hg3 mi
4:00 am61 °FPassing clouds.8 mph100%30.09 "HgN/A
3:30 am61 °FMostly cloudy.12 mph100%30.09 "HgN/A
3:00 am61 °FRain. Mostly cloudy.9 mph100%30.09 "Hg4 mi
2:30 am61 °FOvercast.6 mph100%30.09 "HgN/A
2:00 am61 °FLight rain. Mostly cloudy.3 mph100%30.09 "Hg5 mi
1:30 am63 °FMostly cloudy.10 mph88%30.09 "HgN/A
1:00 am63 °FMostly cloudy.12 mph94%30.12 "HgN/A
12:30 am63 °FMostly cloudy.13 mph94%30.12 "HgN/A
12:00 am61 °FRain. Fog.7 mph100%30.09 "Hg2 mi
11:00 pm
Thu, Jun 20
61 °FHeavy rain. Fog.6 mph94%30.09 "Hg2 mi
10:30 pm61 °FPartly cloudy.3 mph94%30.09 "HgN/A
10:00 pm61 °FOvercast.2 mph94%30.07 "HgN/A
9:30 pm61 °FClear.2 mph100%30.07 "HgN/A
9:00 pm61 °FLight rain. Overcast.3 mph100%30.07 "Hg6 mi
8:30 pm64 °FMostly cloudy.6 mph88%30.07 "HgN/A
8:00 pm64 °FMostly cloudy.1 mph83%30.07 "HgN/A
7:30 pm64 °FOvercast.3 mph83%30.04 "HgN/A
7:00 pm64 °FPartly sunny.7 mph83%30.04 "HgN/A
6:30 pm66 °FBroken clouds.8 mph83%30.04 "HgN/A
6:00 pm66 °FMostly cloudy.3 mph78%30.04 "HgN/A
5:30 pm66 °FPartly sunny.5 mph83%30.04 "HgN/A
5:00 pm64 °FPartly sunny.7 mph83%30.04 "HgN/A
Weather by CustomWeather, © 2024

See weather overview